createdAt,value
2022-10-03T00:01:31.524Z,96348.09
2022-10-03T00:06:34.459Z,96343.88
2022-10-03T00:11:37.536Z,96349.53
2022-10-03T00:16:40.786Z,96356.41
2022-10-03T00:21:44.721Z,96350.44
2022-10-03T00:26:47.591Z,96363.78
2022-10-03T00:31:51.169Z,96369.00
2022-10-03T00:36:53.931Z,96375.44
2022-10-03T00:41:57.003Z,96381.22
2022-10-03T00:47:02.229Z,96386.22
2022-10-03T00:52:05.155Z,96382.31
2022-10-03T00:57:08.223Z,96388.66
2022-10-03T01:02:11.227Z,96387.78
2022-10-03T01:07:14.156Z,96392.59
2022-10-03T01:12:17.016Z,96398.38
2022-10-03T01:17:20.072Z,96395.59
2022-10-03T01:22:22.783Z,96389.91
2022-10-03T01:27:25.487Z,96395.09
2022-10-03T01:32:28.966Z,96392.94
2022-10-03T01:37:31.683Z,96397.13
2022-10-03T01:42:34.359Z,96417.22
2022-10-03T01:47:37.590Z,96421.97
2022-10-03T01:52:40.564Z,96427.34
2022-10-03T01:57:44.014Z,96438.88
2022-10-03T02:02:46.698Z,96442.19
2022-10-03T02:07:49.727Z,96445.59
2022-10-03T02:12:52.430Z,96455.50
2022-10-03T02:17:55.245Z,96455.50
2022-10-03T02:22:57.989Z,96443.34
2022-10-03T02:28:01.120Z,96442.34
2022-10-03T02:33:04.427Z,96445.69
2022-10-03T02:38:08.059Z,96446.59
2022-10-03T02:43:10.837Z,96444.75
2022-10-03T02:48:31.192Z,96447.44
2022-10-03T02:53:34.936Z,96454.88
2022-10-03T02:58:38.979Z,96461.34
2022-10-03T03:03:41.854Z,96472.28
2022-10-03T03:08:44.653Z,96470.00
2022-10-03T03:13:49.726Z,96473.06
2022-10-03T03:18:53.720Z,96469.00
2022-10-03T03:23:56.476Z,96474.59
2022-10-03T03:28:59.246Z,96486.50
2022-10-03T03:34:07.100Z,96497.50
2022-10-03T03:39:11.158Z,96492.91
2022-10-03T03:44:13.889Z,96488.69
2022-10-03T03:49:16.620Z,96493.59
2022-10-03T03:54:19.523Z,96494.41
2022-10-03T03:59:22.274Z,96496.84
2022-10-03T04:04:24.963Z,96496.50
2022-10-03T04:09:27.638Z,96495.69
2022-10-03T04:14:30.972Z,96496.72
2022-10-03T04:19:33.762Z,96498.84
2022-10-03T04:24:37.462Z,96505.25
2022-10-03T04:29:40.441Z,96502.13
2022-10-03T04:34:43.403Z,96504.31
2022-10-03T04:39:46.101Z,96500.97
2022-10-03T04:44:49.078Z,96501.28
2022-10-03T04:49:52.511Z,96491.06
2022-10-03T04:54:55.360Z,96496.78
2022-10-03T04:59:58.168Z,96491.91
2022-10-03T05:05:01.206Z,96499.13
2022-10-03T05:10:08.269Z,96504.94
2022-10-03T05:15:14.562Z,96493.91
2022-10-03T05:20:17.377Z,96500.66
2022-10-03T05:25:20.689Z,96507.72
2022-10-03T05:30:23.798Z,96522.00
2022-10-03T05:35:26.644Z,96515.47
2022-10-03T05:40:29.514Z,96523.28
2022-10-03T05:45:32.336Z,96523.59
2022-10-03T05:50:45.200Z,96530.78
2022-10-03T05:55:48.746Z,96543.91
2022-10-03T06:00:51.863Z,96544.19
2022-10-03T06:05:57.641Z,96545.44
2022-10-03T06:11:00.465Z,96549.97
2022-10-03T06:16:03.302Z,96560.03
2022-10-03T06:21:06.229Z,96578.78
2022-10-03T06:26:09.011Z,96580.63
2022-10-03T06:31:12.330Z,96592.53
2022-10-03T06:36:15.159Z,96594.09
2022-10-03T06:41:17.962Z,96604.19
2022-10-03T06:46:20.862Z,96605.56
2022-10-03T06:51:29.702Z,96607.94
2022-10-03T06:56:33.338Z,96607.34
2022-10-03T07:01:36.263Z,96608.81
2022-10-03T07:06:39.379Z,96618.28
2022-10-03T07:11:44.151Z,96613.69
2022-10-03T07:16:47.205Z,96613.69
2022-10-03T07:21:53.256Z,96604.44
2022-10-03T07:26:57.537Z,96624.66
2022-10-03T07:32:01.427Z,96627.56
2022-10-03T07:37:22.372Z,96638.13
2022-10-03T07:42:25.766Z,96638.63
2022-10-03T07:47:28.517Z,96645.00
2022-10-03T07:52:31.370Z,96645.84
2022-10-03T07:57:37.942Z,96645.44
2022-10-03T08:02:40.832Z,96639.75
2022-10-03T08:07:45.142Z,96646.75
2022-10-03T08:12:47.921Z,96644.03
2022-10-03T08:17:50.893Z,96632.75
2022-10-03T08:22:54.014Z,96648.44
2022-10-03T08:27:56.978Z,96653.63
2022-10-03T08:32:59.918Z,96655.00
2022-10-03T08:38:03.349Z,96645.97
2022-10-03T08:43:06.128Z,96653.03
2022-10-03T08:48:10.484Z,96647.91
2022-10-03T08:53:13.302Z,96665.22
2022-10-03T08:58:16.700Z,96663.38
2022-10-03T09:03:33.584Z,96662.41
2022-10-03T09:08:38.570Z,96664.63
2022-10-03T09:13:41.424Z,96656.38
2022-10-03T09:18:44.167Z,96667.47
2022-10-03T09:23:46.979Z,96659.41
2022-10-03T09:28:49.979Z,96665.44
2022-10-03T09:33:55.368Z,96658.53
2022-10-03T09:38:59.238Z,96656.03
2022-10-03T09:44:02.171Z,96660.06
2022-10-03T09:49:05.176Z,96656.72
2022-10-03T09:54:07.868Z,96656.28
2022-10-03T09:59:12.213Z,96646.66
2022-10-03T10:04:14.931Z,96645.59
2022-10-03T10:09:17.642Z,96647.50
2022-10-03T10:14:20.397Z,96640.47
2022-10-03T10:19:23.607Z,96640.16
2022-10-03T10:24:26.381Z,96635.59
2022-10-03T10:29:29.886Z,96619.13
2022-10-03T10:34:32.764Z,96614.00
2022-10-03T10:39:35.562Z,96618.25
2022-10-03T10:44:40.347Z,96615.78
2022-10-03T10:49:45.891Z,96609.59
2022-10-03T10:54:49.189Z,96611.53
2022-10-03T10:59:52.030Z,96622.88
2022-10-03T11:04:55.998Z,96603.19
2022-10-03T11:09:59.055Z,96598.84
2022-10-03T11:15:02.507Z,96599.00
2022-10-03T11:20:05.705Z,96602.09
2022-10-03T11:25:09.093Z,96602.09
2022-10-03T11:30:11.837Z,96598.31
2022-10-03T11:35:15.083Z,96593.22
2022-10-03T11:40:23.097Z,96574.75
2022-10-03T11:45:27.050Z,96586.59
2022-10-03T11:50:30.631Z,96592.06
2022-10-03T11:55:34.182Z,96581.25
2022-10-03T12:00:37.021Z,96579.91
2022-10-03T12:05:39.748Z,96579.28
2022-10-03T12:10:42.532Z,96551.34
2022-10-03T12:15:45.730Z,96562.66
2022-10-03T12:20:48.514Z,96562.09
2022-10-03T12:25:51.222Z,96557.94
2022-10-03T12:30:55.274Z,96560.41
2022-10-03T12:35:58.031Z,96548.53
2022-10-03T12:41:02.106Z,96563.75
2022-10-03T12:46:06.048Z,96552.09
2022-10-03T12:51:08.825Z,96547.75
2022-10-03T12:56:12.761Z,96545.81
2022-10-03T13:01:15.548Z,96535.38
2022-10-03T13:06:18.339Z,96541.88
2022-10-03T13:11:21.249Z,96530.09
2022-10-03T13:16:24.489Z,96524.56
2022-10-03T13:21:45.344Z,96524.13
2022-10-03T13:26:50.717Z,96542.19
2022-10-03T13:31:54.130Z,96533.50
2022-10-03T13:36:57.044Z,96537.47
2022-10-03T13:42:00.385Z,96538.31
2022-10-03T13:47:03.116Z,96536.19
2022-10-03T13:52:07.471Z,96528.69
2022-10-03T13:57:10.351Z,96524.09
2022-10-03T14:02:13.337Z,96512.47
2022-10-03T14:07:16.272Z,96508.94
2022-10-03T14:12:33.079Z,96503.84
2022-10-03T14:17:42.327Z,96504.91
2022-10-03T14:22:45.873Z,96511.94
2022-10-03T14:27:48.837Z,96517.03
2022-10-03T14:32:52.044Z,96515.13
2022-10-03T14:37:55.138Z,96518.38
2022-10-03T14:42:57.939Z,96519.44
2022-10-03T14:48:02.738Z,96514.09
2022-10-03T14:53:06.409Z,96511.88
2022-10-03T14:58:11.781Z,96506.50
2022-10-03T15:03:14.832Z,96506.50
2022-10-03T15:08:17.715Z,96498.94
2022-10-03T15:13:20.544Z,96496.78
2022-10-03T15:18:24.326Z,96494.88
2022-10-03T15:23:27.408Z,96493.25
2022-10-03T15:28:30.482Z,96496.22
2022-10-03T15:33:33.365Z,96500.00
2022-10-03T15:38:36.034Z,96497.25
2022-10-03T15:43:40.517Z,96492.41
2022-10-03T15:48:47.340Z,96491.81
2022-10-03T15:53:50.424Z,96487.94
2022-10-03T15:58:58.576Z,96501.34
2022-10-03T16:04:01.321Z,96497.25
2022-10-03T16:09:04.165Z,96496.88
2022-10-03T16:14:07.162Z,96489.28
2022-10-03T16:19:09.950Z,96489.22
2022-10-03T16:24:12.863Z,96489.91
2022-10-03T16:29:15.704Z,96494.41
2022-10-03T16:34:18.457Z,96501.19
2022-10-03T16:39:22.788Z,96502.22
2022-10-03T16:44:29.277Z,96502.63
2022-10-03T16:49:50.694Z,96505.72
2022-10-03T16:54:53.702Z,96507.16
2022-10-03T16:59:56.570Z,96516.03
2022-10-03T17:05:00.413Z,96509.13
2022-10-03T17:10:03.218Z,96514.13
2022-10-03T17:15:06.385Z,96525.78
2022-10-03T17:20:09.235Z,96522.53
2022-10-03T17:25:16.158Z,96533.84
2022-10-03T17:30:21.296Z,96525.94
2022-10-03T17:35:24.166Z,96517.72
2022-10-03T17:40:27.672Z,96529.91
2022-10-03T17:45:32.010Z,96522.03
2022-10-03T17:50:34.777Z,96518.53
2022-10-03T17:55:38.160Z,96526.19
2022-10-03T18:00:41.892Z,96535.03
2022-10-03T18:05:44.850Z,96547.00
2022-10-03T18:10:49.255Z,96537.63
2022-10-03T18:15:52.300Z,96537.16
2022-10-03T18:20:58.494Z,96530.97
2022-10-03T18:26:20.693Z,96529.81
2022-10-03T18:31:23.811Z,96534.28
2022-10-03T18:36:29.230Z,96541.78
2022-10-03T18:41:32.010Z,96543.84
2022-10-03T18:46:35.083Z,96550.03
2022-10-03T18:51:38.250Z,96550.03
2022-10-03T18:56:41.567Z,96541.56
2022-10-03T19:01:44.564Z,96544.47
2022-10-03T19:06:53.558Z,96545.34
2022-10-03T19:11:56.322Z,96546.63
2022-10-03T19:16:59.076Z,96549.28
2022-10-03T19:22:01.950Z,96547.25
2022-10-03T19:27:05.698Z,96545.50
2022-10-03T19:32:09.323Z,96537.47
2022-10-03T19:37:13.725Z,96537.03
2022-10-03T19:42:18.131Z,96535.50
2022-10-03T19:47:20.881Z,96536.22
2022-10-03T19:52:23.789Z,96533.88
2022-10-03T19:57:27.267Z,96540.84
2022-10-03T20:02:30.323Z,96537.59
2022-10-03T20:07:33.309Z,96549.72
2022-10-03T20:12:38.381Z,96546.09
2022-10-03T20:17:44.658Z,96537.41
2022-10-03T20:22:47.745Z,96548.22
2022-10-03T20:27:50.956Z,96547.84
2022-10-03T20:32:53.827Z,96539.13
2022-10-03T20:37:56.542Z,96539.69
2022-10-03T20:43:00.055Z,96535.50
2022-10-03T20:48:03.034Z,96536.91
2022-10-03T20:53:05.803Z,96543.50
2022-10-03T20:58:08.460Z,96538.03
2022-10-03T21:03:11.385Z,96535.34
2022-10-03T21:08:17.439Z,96536.19
2022-10-03T21:13:20.294Z,96527.31
2022-10-03T21:18:22.985Z,96532.66
2022-10-03T21:23:25.912Z,96528.47
2022-10-03T21:28:28.665Z,96526.16
2022-10-03T21:33:31.413Z,96520.53
2022-10-03T21:38:36.171Z,96521.94
2022-10-03T21:43:38.979Z,96514.75
2022-10-03T21:48:41.793Z,96519.72
2022-10-03T21:53:44.566Z,96527.53
2022-10-03T21:58:47.557Z,96513.13
2022-10-03T22:03:51.578Z,96503.81
2022-10-03T22:08:54.416Z,96489.50
2022-10-03T22:13:57.209Z,96488.69
2022-10-03T22:19:00.246Z,96480.09
2022-10-03T22:24:02.958Z,96461.19
2022-10-03T22:29:05.774Z,96463.41
2022-10-03T22:34:08.904Z,96466.63
2022-10-03T22:39:11.863Z,96458.75
2022-10-03T22:44:17.611Z,96445.38
2022-10-03T22:49:20.561Z,96444.44
2022-10-03T22:54:23.427Z,96444.66
2022-10-03T22:59:26.186Z,96445.47
2022-10-03T23:04:28.945Z,96449.63
2022-10-03T23:09:31.730Z,96454.16
2022-10-03T23:14:34.972Z,96435.53
2022-10-03T23:19:37.762Z,96442.00
2022-10-03T23:24:40.459Z,96437.59
2022-10-03T23:29:43.293Z,96445.53
2022-10-03T23:34:46.517Z,96444.53
2022-10-03T23:39:49.676Z,96431.19
2022-10-03T23:44:52.761Z,96441.38
2022-10-03T23:50:01.346Z,96445.09
2022-10-03T23:55:04.385Z,96447.91
